createdAt,value
2019-04-11T00:02:44.803Z,29.00
2019-04-11T00:05:37.058Z,29.00
2019-04-11T00:08:30.109Z,29.00
2019-04-11T00:11:23.842Z,29.00
2019-04-11T00:14:17.866Z,29.00
2019-04-11T00:17:11.883Z,29.10
2019-04-11T00:20:04.343Z,29.10
2019-04-11T00:22:57.646Z,29.00
2019-04-11T00:25:50.210Z,29.00
2019-04-11T00:28:42.716Z,29.00
2019-04-11T00:31:35.017Z,29.00
2019-04-11T00:34:27.498Z,29.00
2019-04-11T00:37:21.016Z,29.00
2019-04-11T00:40:13.550Z,29.00
2019-04-11T00:43:05.773Z,29.00
2019-04-11T00:45:58.182Z,29.00
2019-04-11T00:48:51.806Z,29.00
2019-04-11T00:51:45.004Z,29.00
2019-04-11T00:54:38.522Z,29.00
2019-04-11T00:57:30.877Z,29.00
2019-04-11T01:00:23.233Z,29.10
2019-04-11T01:03:15.596Z,29.00
2019-04-11T01:06:08.000Z,29.00
2019-04-11T01:09:00.288Z,29.00
2019-04-11T01:11:52.164Z,29.10
2019-04-11T01:14:44.770Z,29.00
2019-04-11T01:17:39.151Z,29.10
2019-04-11T01:20:31.965Z,29.10
2019-04-11T01:23:24.645Z,29.10
2019-04-11T01:26:17.067Z,29.20
2019-04-11T01:29:09.570Z,29.20
2019-04-11T01:32:06.410Z,29.10
2019-04-11T01:34:59.810Z,29.10
2019-04-11T01:37:53.478Z,29.10
2019-04-11T01:40:46.127Z,29.10
2019-04-11T01:43:38.425Z,29.10
2019-04-11T01:46:31.957Z,29.10
2019-04-11T01:49:25.039Z,29.10
2019-04-11T01:52:18.139Z,29.10
2019-04-11T01:55:10.355Z,29.10
2019-04-11T01:58:04.525Z,29.10
2019-04-11T02:01:12.539Z,29.10
2019-04-11T02:04:23.673Z,29.10
2019-04-11T02:07:16.516Z,29.10
2019-04-11T02:10:08.916Z,29.10
2019-04-11T02:13:01.721Z,29.10
2019-04-11T02:15:50.000Z,29.10
2019-04-11T02:18:42.352Z,29.10
2019-04-11T02:21:35.783Z,29.20
2019-04-11T02:24:39.594Z,29.20
2019-04-11T02:27:34.820Z,29.20
2019-04-11T02:30:27.894Z,29.20
2019-04-11T02:33:21.818Z,29.20
2019-04-11T02:36:14.006Z,29.20
2019-04-11T02:39:12.269Z,29.20
2019-04-11T02:42:03.721Z,29.20
2019-04-11T02:45:10.896Z,29.20
2019-04-11T02:47:51.756Z,29.20
2019-04-11T02:50:43.577Z,29.20
2019-04-11T02:53:36.840Z,29.20
2019-04-11T02:56:31.225Z,29.20
2019-04-11T02:59:25.412Z,29.20
2019-04-11T03:02:19.459Z,29.20
2019-04-11T03:05:13.631Z,29.20
2019-04-11T03:08:10.864Z,29.20
2019-04-11T03:13:50.353Z,29.20
2019-04-11T03:16:53.449Z,29.20
2019-04-11T03:19:49.272Z,29.20
2019-04-11T03:22:29.732Z,29.20
2019-04-11T03:25:24.463Z,29.30
2019-04-11T03:28:21.041Z,29.30
2019-04-11T03:31:47.328Z,29.20
2019-04-11T03:34:53.687Z,29.20
2019-04-11T03:40:13.160Z,29.30
2019-04-11T03:43:00.037Z,29.30
2019-04-11T03:45:58.964Z,29.20
2019-04-11T03:48:45.388Z,29.30
2019-04-11T03:51:30.473Z,29.30
2019-04-11T03:54:25.232Z,29.30
2019-04-11T03:57:23.501Z,29.30
2019-04-11T04:00:15.668Z,29.30
2019-04-11T04:03:09.115Z,29.30
2019-04-11T04:06:01.969Z,29.30
2019-04-11T04:08:55.493Z,29.30
2019-04-11T04:11:49.343Z,29.30
2019-04-11T04:15:01.426Z,28.90
2019-04-11T04:18:16.538Z,28.60
2019-04-11T04:21:44.799Z,28.40
2019-04-11T04:24:40.058Z,28.40
2019-04-11T04:27:38.404Z,28.10
2019-04-11T04:30:33.534Z,27.90
2019-04-11T04:33:26.646Z,27.80
2019-04-11T04:36:22.210Z,27.70
2019-04-11T04:39:14.904Z,27.60
2019-04-11T04:42:17.464Z,27.60
2019-04-11T04:45:07.956Z,27.40
2019-04-11T04:48:07.281Z,27.20
2019-04-11T04:50:57.655Z,27.10
2019-04-11T04:53:50.240Z,26.90
2019-04-11T04:56:43.702Z,26.60
2019-04-11T04:59:37.532Z,26.50
2019-04-11T05:02:32.695Z,27.10
2019-04-11T05:05:26.689Z,27.80
2019-04-11T05:08:22.819Z,28.20
2019-04-11T05:11:18.018Z,28.50
2019-04-11T05:14:29.573Z,28.60
2019-04-11T05:17:34.387Z,28.80
2019-04-11T05:20:28.083Z,28.90
2019-04-11T05:24:06.587Z,29.00
2019-04-11T05:26:55.936Z,29.00
2019-04-11T05:29:49.579Z,29.10
2019-04-11T05:35:36.227Z,29.10
2019-04-11T05:38:29.918Z,29.20
2019-04-11T05:41:27.420Z,29.20
2019-04-11T05:48:15.633Z,29.30
2019-04-11T05:51:12.990Z,29.50
2019-04-11T05:54:18.349Z,29.50
2019-04-11T05:57:33.635Z,29.50
2019-04-11T06:00:46.788Z,29.50
2019-04-11T06:08:05.300Z,29.60
2019-04-11T06:11:16.441Z,29.60
2019-04-11T06:14:45.050Z,29.70
2019-04-11T06:17:54.452Z,29.70
2019-04-11T06:28:30.611Z,29.40
2019-04-11T06:40:04.129Z,28.80
2019-04-11T06:42:47.583Z,28.70
2019-04-11T06:46:31.327Z,28.70
2019-04-11T06:49:50.990Z,28.70
2019-04-11T06:52:50.994Z,28.60
2019-04-11T06:56:37.966Z,28.60
2019-04-11T06:59:44.798Z,28.70
2019-04-11T07:06:11.336Z,28.60
2019-04-11T07:10:02.147Z,28.50
2019-04-11T07:13:03.579Z,28.50
2019-04-11T07:15:58.757Z,28.50
2019-04-11T07:19:13.468Z,28.50
2019-04-11T07:26:04.438Z,28.30
2019-04-11T07:29:00.671Z,28.40
2019-04-11T07:38:18.393Z,28.40
2019-04-11T07:41:12.775Z,28.40
2019-04-11T07:44:33.918Z,28.40
2019-04-11T07:47:43.921Z,28.50
2019-04-11T07:50:33.311Z,28.30
2019-04-11T07:53:35.159Z,28.20
2019-04-11T07:56:51.083Z,28.20
2019-04-11T08:00:15.061Z,28.00
2019-04-11T08:03:36.465Z,28.00
2019-04-11T08:10:16.892Z,27.90
2019-04-11T08:16:48.948Z,27.90
2019-04-11T08:23:21.908Z,27.90
2019-04-11T08:26:37.982Z,27.80
2019-04-11T08:29:38.794Z,27.90
2019-04-11T08:33:16.262Z,27.90
2019-04-11T08:36:31.902Z,27.80
2019-04-11T08:39:29.091Z,28.00
2019-04-11T08:42:47.105Z,28.50
2019-04-11T08:48:41.204Z,28.90
2019-04-11T08:51:35.628Z,29.00
2019-04-11T08:54:48.206Z,29.10
2019-04-11T08:57:44.487Z,29.20
2019-04-11T09:04:11.848Z,29.30
2019-04-11T09:07:03.308Z,29.30
2019-04-11T09:10:31.820Z,29.40
2019-04-11T09:13:41.878Z,29.40
2019-04-11T09:17:01.856Z,29.50
2019-04-11T09:20:21.377Z,29.50
2019-04-11T09:23:15.060Z,29.50
2019-04-11T09:26:28.318Z,29.50
2019-04-11T09:29:22.023Z,29.60
2019-04-11T09:32:32.716Z,29.70
2019-04-11T09:35:20.482Z,29.70
2019-04-11T09:45:25.753Z,29.80
2019-04-11T09:48:44.339Z,29.80
2019-04-11T09:52:09.324Z,29.80
2019-04-11T09:55:23.454Z,29.80
2019-04-11T09:58:31.635Z,29.80
2019-04-11T10:01:48.001Z,29.90
2019-04-11T10:04:48.013Z,29.90
2019-04-11T10:08:14.745Z,29.90
2019-04-11T10:11:26.205Z,29.90
2019-04-11T10:14:25.815Z,29.90
2019-04-11T10:17:38.104Z,29.90
2019-04-11T10:20:42.526Z,29.90
2019-04-11T10:23:59.206Z,29.80
2019-04-11T10:27:08.819Z,29.80
2019-04-11T10:30:22.422Z,29.80
2019-04-11T10:34:07.473Z,29.80
2019-04-11T10:36:38.958Z,29.80
2019-04-11T10:40:01.868Z,29.80
2019-04-11T10:43:04.300Z,29.80
2019-04-11T10:46:28.890Z,29.70
2019-04-11T10:53:41.489Z,29.60
2019-04-11T10:57:01.998Z,29.60
2019-04-11T11:00:07.098Z,29.70
2019-04-11T11:03:24.336Z,29.70
2019-04-11T11:06:31.476Z,29.80
2019-04-11T11:09:48.861Z,29.70
2019-04-11T11:13:07.721Z,29.70
2019-04-11T11:16:15.861Z,29.70
2019-04-11T11:19:47.555Z,29.70
2019-04-11T11:22:44.703Z,29.60
2019-04-11T11:25:48.532Z,29.60
2019-04-11T11:29:47.551Z,29.60
2019-04-11T11:36:34.954Z,29.70
2019-04-11T11:39:37.389Z,29.60
2019-04-11T11:43:19.026Z,29.60
2019-04-11T11:46:25.543Z,29.60
2019-04-11T11:49:37.632Z,29.60
2019-04-11T11:52:51.096Z,29.60
2019-04-11T11:59:20.166Z,29.60
2019-04-11T12:02:18.282Z,29.60
2019-04-11T12:08:37.018Z,29.50
2019-04-11T12:11:32.399Z,29.50
2019-04-11T12:14:59.456Z,29.50
2019-04-11T12:18:29.170Z,29.70
2019-04-11T12:21:28.058Z,29.90
2019-04-11T13:05:53.045Z,30.10
2019-04-11T13:09:03.627Z,30.00
2019-04-11T13:11:57.912Z,29.90
2019-04-11T13:14:59.934Z,30.00
2019-04-11T13:18:02.605Z,30.00
2019-04-11T13:21:06.276Z,29.90
2019-04-11T13:24:22.647Z,30.00
2019-04-11T13:27:20.848Z,30.00
2019-04-11T13:30:41.475Z,30.10
2019-04-11T13:33:37.037Z,30.10
2019-04-11T13:36:43.057Z,30.10
2019-04-11T13:39:37.350Z,30.00
2019-04-11T13:42:48.306Z,30.00
2019-04-11T13:45:54.543Z,30.10
2019-04-11T13:49:05.676Z,30.10
2019-04-11T13:52:32.092Z,30.00
2019-04-11T13:55:38.015Z,30.00
2019-04-11T13:58:48.009Z,29.90
2019-04-11T14:01:42.182Z,29.90
2019-04-11T14:04:39.449Z,29.90
2019-04-11T14:07:32.114Z,29.90
2019-04-11T14:10:26.342Z,29.90
2019-04-11T14:13:18.998Z,29.90
2019-04-11T14:16:20.739Z,29.80
2019-04-11T14:19:22.376Z,29.90
2019-04-11T14:22:16.422Z,29.80
2019-04-11T14:25:37.930Z,29.80
2019-04-11T14:28:34.788Z,29.80
2019-04-11T14:31:41.606Z,29.80
2019-04-11T14:34:55.484Z,29.70
2019-04-11T14:38:18.145Z,29.70
2019-04-11T14:41:41.528Z,29.70
2019-04-11T14:44:35.317Z,29.70
2019-04-11T14:47:45.065Z,29.70
2019-04-11T14:50:54.185Z,29.70
2019-04-11T14:54:07.454Z,29.70
2019-04-11T14:57:26.014Z,29.70
2019-04-11T15:00:27.194Z,29.70
2019-04-11T15:03:43.633Z,29.60
2019-04-11T15:06:44.592Z,29.70
2019-04-11T15:09:52.850Z,29.60
2019-04-11T15:12:45.723Z,29.60
2019-04-11T15:15:49.001Z,29.60
2019-04-11T15:18:46.822Z,29.60
2019-04-11T15:22:06.765Z,29.60
2019-04-11T15:25:07.802Z,29.60
2019-04-11T15:28:30.450Z,29.60
2019-04-11T15:31:46.971Z,29.60
2019-04-11T15:34:52.904Z,29.60
2019-04-11T15:38:05.877Z,29.60
2019-04-11T15:41:00.970Z,29.60
2019-04-11T15:44:11.704Z,29.60
2019-04-11T15:47:07.329Z,29.60
2019-04-11T15:50:17.699Z,29.50
2019-04-11T15:53:10.546Z,29.50
2019-04-11T15:56:27.918Z,29.50
2019-04-11T15:59:56.872Z,29.50
2019-04-11T16:03:06.899Z,29.50
2019-04-11T16:06:16.321Z,29.50
2019-04-11T16:09:13.580Z,29.50
2019-04-11T16:12:19.645Z,29.50
2019-04-11T16:15:14.746Z,29.50
2019-04-11T16:18:32.903Z,29.50
2019-04-11T16:21:32.299Z,29.50
2019-04-11T16:24:30.859Z,29.50
2019-04-11T16:27:41.636Z,29.60
2019-04-11T16:30:35.339Z,29.50
2019-04-11T16:33:34.748Z,29.50
2019-04-11T16:36:46.865Z,29.50
2019-04-11T16:39:57.346Z,29.60
2019-04-11T16:42:53.803Z,29.60
2019-04-11T16:46:25.404Z,29.60
2019-04-11T16:49:18.154Z,29.50
2019-04-11T16:52:12.681Z,29.50
2019-04-11T16:55:10.066Z,29.50
2019-04-11T16:58:03.538Z,29.50
2019-04-11T17:00:57.679Z,29.50
2019-04-11T17:03:49.997Z,29.50
2019-04-11T17:07:00.328Z,29.60
2019-04-11T17:09:56.913Z,29.60
2019-04-11T17:12:48.859Z,29.60
2019-04-11T17:15:42.734Z,29.60
2019-04-11T17:18:36.574Z,29.70
2019-04-11T17:21:30.151Z,29.60
2019-04-11T17:24:22.788Z,29.60
2019-04-11T17:27:15.403Z,29.60
2019-04-11T17:30:08.804Z,29.60
2019-04-11T17:33:01.353Z,29.50
2019-04-11T17:35:53.719Z,29.50
2019-04-11T17:38:46.371Z,29.50
2019-04-11T17:41:41.754Z,29.50
2019-04-11T17:44:35.924Z,29.50
2019-04-11T17:47:28.568Z,29.50
2019-04-11T17:50:20.921Z,29.50
2019-04-11T17:53:13.260Z,29.50
2019-04-11T17:56:05.595Z,29.50
2019-04-11T17:58:58.067Z,29.50
2019-04-11T18:01:50.607Z,29.50
2019-04-11T18:04:45.731Z,29.50
2019-04-11T18:07:41.326Z,29.50
2019-04-11T18:10:31.962Z,29.50
2019-04-11T18:13:24.170Z,29.50
2019-04-11T18:16:16.659Z,29.50
2019-04-11T18:19:09.853Z,29.50
2019-04-11T18:22:07.808Z,29.50
2019-04-11T18:24:55.903Z,29.50
2019-04-11T18:27:51.617Z,29.50
2019-04-11T18:30:42.238Z,29.40
2019-04-11T18:33:34.475Z,29.50
2019-04-11T18:36:26.363Z,29.50
2019-04-11T18:39:18.564Z,29.50
2019-04-11T18:42:10.591Z,29.50
2019-04-11T18:45:02.758Z,29.50
2019-04-11T18:47:55.096Z,29.50
2019-04-11T18:50:47.635Z,29.50
2019-04-11T18:53:40.188Z,29.50
2019-04-11T18:56:32.709Z,29.50
2019-04-11T18:59:25.069Z,29.50
2019-04-11T19:02:17.412Z,29.50
2019-04-11T19:05:10.857Z,29.50
2019-04-11T19:08:03.907Z,29.50
2019-04-11T19:10:55.943Z,29.50
2019-04-11T19:13:48.649Z,29.40
2019-04-11T19:16:41.253Z,29.50
2019-04-11T19:19:33.298Z,29.50
2019-04-11T19:22:37.030Z,29.50
2019-04-11T19:25:18.890Z,29.40
2019-04-11T19:28:11.563Z,29.50
2019-04-11T19:31:03.915Z,29.50
2019-04-11T19:33:56.260Z,29.50
2019-04-11T19:36:48.666Z,29.50
2019-04-11T19:39:45.157Z,29.50
2019-04-11T19:42:34.457Z,29.50
2019-04-11T19:45:27.105Z,29.50
2019-04-11T19:48:19.770Z,29.50
2019-04-11T19:51:12.095Z,29.50
2019-04-11T19:54:04.441Z,29.50
2019-04-11T19:57:06.689Z,29.50
2019-04-11T19:59:58.957Z,29.50
2019-04-11T20:02:54.100Z,29.50
2019-04-11T20:05:46.306Z,29.50
2019-04-11T20:08:38.948Z,29.50
2019-04-11T20:11:31.230Z,29.50
2019-04-11T20:14:23.300Z,29.50
2019-04-11T20:17:19.054Z,29.50
2019-04-11T20:20:08.551Z,29.40
2019-04-11T20:23:00.743Z,29.50
2019-04-11T20:25:53.551Z,29.40
2019-04-11T20:28:45.607Z,29.40
2019-04-11T20:31:37.927Z,29.40
2019-04-11T20:34:30.604Z,29.50
2019-04-11T20:37:24.472Z,29.40
2019-04-11T20:40:18.865Z,29.40
2019-04-11T20:43:10.221Z,29.40
2019-04-11T20:46:03.226Z,29.40
2019-04-11T20:48:55.626Z,29.40
2019-04-11T20:51:47.884Z,29.40
2019-04-11T20:54:40.355Z,29.40
2019-04-11T20:57:32.597Z,29.40
2019-04-11T21:00:24.895Z,29.40
2019-04-11T21:03:17.526Z,29.40
2019-04-11T21:06:09.538Z,29.40
2019-04-11T21:09:03.061Z,29.40
2019-04-11T21:11:56.142Z,29.50
2019-04-11T21:14:48.112Z,29.40
2019-04-11T21:17:40.225Z,29.50
2019-04-11T21:20:32.165Z,29.40
2019-04-11T21:23:24.993Z,29.40
2019-04-11T21:26:18.094Z,29.40
2019-04-11T21:29:10.464Z,29.40
2019-04-11T21:32:02.587Z,29.40
2019-04-11T21:34:54.723Z,29.50
2019-04-11T21:37:47.715Z,29.50
2019-04-11T21:40:40.035Z,29.50
2019-04-11T21:43:35.961Z,29.40
2019-04-11T21:46:25.883Z,29.40
2019-04-11T21:49:18.303Z,29.40
2019-04-11T21:52:12.310Z,29.40
2019-04-11T21:55:04.862Z,29.40
2019-04-11T21:57:57.142Z,29.40
2019-04-11T22:00:54.372Z,29.40
2019-04-11T22:03:45.678Z,29.40
2019-04-11T22:06:37.817Z,29.40
2019-04-11T22:09:30.167Z,29.40
2019-04-11T22:12:22.301Z,29.40
2019-04-11T22:15:15.002Z,29.40
2019-04-11T22:18:07.912Z,29.40
2019-04-11T22:21:00.771Z,29.40
2019-04-11T22:23:52.680Z,29.40
2019-04-11T22:26:45.027Z,29.40
2019-04-11T22:29:36.982Z,29.40
2019-04-11T22:32:29.428Z,29.40
2019-04-11T22:35:21.628Z,29.40
2019-04-11T22:38:14.591Z,29.40
2019-04-11T22:41:06.573Z,29.40
2019-04-11T22:43:58.833Z,29.40
2019-04-11T22:46:51.352Z,29.40
2019-04-11T22:49:44.199Z,29.40
2019-04-11T22:52:39.757Z,29.40
2019-04-11T22:55:31.054Z,29.40
2019-04-11T22:58:23.190Z,29.40
2019-04-11T23:01:16.525Z,29.40
2019-04-11T23:04:10.116Z,29.40
2019-04-11T23:07:03.664Z,29.40
2019-04-11T23:09:56.854Z,29.40
2019-04-11T23:12:49.339Z,29.40
2019-04-11T23:15:43.413Z,29.40
2019-04-11T23:18:36.815Z,29.40
2019-04-11T23:21:29.299Z,29.50
2019-04-11T23:24:22.100Z,29.40
2019-04-11T23:27:14.567Z,29.40
2019-04-11T23:30:07.076Z,29.40
2019-04-11T23:33:00.505Z,29.40
2019-04-11T23:35:54.258Z,29.40
2019-04-11T23:38:47.720Z,29.40
2019-04-11T23:41:39.960Z,29.40
2019-04-11T23:44:33.364Z,29.40
2019-04-11T23:47:26.338Z,29.40
2019-04-11T23:50:19.955Z,29.40
2019-04-11T23:53:13.318Z,29.40
2019-04-11T23:56:06.541Z,29.40
2019-04-11T23:59:01.538Z,29.40
